createdAt,value
2022-08-24T00:01:58.628Z,21.74
2022-08-24T00:04:27.038Z,21.86
2022-08-24T00:06:57.788Z,21.39
2022-08-24T00:09:25.634Z,21.40
2022-08-24T00:11:53.555Z,21.65
2022-08-24T00:14:21.472Z,21.75
2022-08-24T00:16:49.468Z,21.06
2022-08-24T00:19:18.081Z,21.29
2022-08-24T00:21:45.892Z,21.56
2022-08-24T00:24:15.553Z,21.39
2022-08-24T00:26:43.460Z,21.22
2022-08-24T00:29:11.336Z,21.24
2022-08-24T00:31:39.386Z,21.90
2022-08-24T00:34:07.825Z,22.19
2022-08-24T00:36:36.063Z,21.89
2022-08-24T00:39:05.617Z,21.84
2022-08-24T00:41:37.103Z,22.05
2022-08-24T00:44:06.951Z,21.31
2022-08-24T00:46:46.732Z,21.40
2022-08-24T00:49:24.745Z,21.54
2022-08-24T00:52:06.221Z,21.49
2022-08-24T00:54:46.113Z,21.76
2022-08-24T00:57:21.239Z,21.68
2022-08-24T00:59:55.122Z,21.62
2022-08-24T01:02:27.650Z,22.15
2022-08-24T01:05:02.006Z,22.08
2022-08-24T01:07:33.054Z,22.22
2022-08-24T01:10:09.981Z,21.82
2022-08-24T01:12:48.216Z,21.91
2022-08-24T01:15:30.289Z,22.11
2022-08-24T01:18:16.838Z,21.88
2022-08-24T01:20:52.317Z,21.77
2022-08-24T01:23:37.818Z,21.89
2022-08-24T01:26:07.323Z,21.49
2022-08-24T01:28:39.851Z,21.99
2022-08-24T01:31:09.028Z,21.67
2022-08-24T01:33:37.220Z,21.44
2022-08-24T01:36:15.789Z,21.46
2022-08-24T01:38:46.284Z,21.86
2022-08-24T01:41:14.193Z,21.55
2022-08-24T01:43:42.346Z,21.79
2022-08-24T01:46:10.576Z,21.70
2022-08-24T01:48:38.606Z,21.68
2022-08-24T01:51:06.834Z,21.26
2022-08-24T01:53:34.930Z,21.54
2022-08-24T01:56:04.810Z,21.16
2022-08-24T01:58:32.823Z,21.25
2022-08-24T02:01:00.872Z,21.26
2022-08-24T02:03:30.297Z,21.58
2022-08-24T02:05:59.526Z,21.21
2022-08-24T02:08:27.599Z,21.34
2022-08-24T02:10:56.770Z,21.30
2022-08-24T02:13:28.737Z,20.88
2022-08-24T02:15:56.722Z,20.93
2022-08-24T02:18:24.733Z,20.59
2022-08-24T02:20:53.239Z,21.21
2022-08-24T02:23:22.273Z,21.17
2022-08-24T02:25:50.829Z,20.39
2022-08-24T02:28:20.164Z,20.16
2022-08-24T02:30:50.043Z,20.64
2022-08-24T02:33:17.961Z,20.13
2022-08-24T02:35:46.031Z,20.51
2022-08-24T02:38:13.903Z,20.95
2022-08-24T02:40:41.789Z,20.57
2022-08-24T02:43:09.871Z,21.07
2022-08-24T02:45:40.257Z,21.31
2022-08-24T02:48:10.514Z,21.59
2022-08-24T02:50:40.706Z,21.17
2022-08-24T02:53:08.590Z,21.45
2022-08-24T02:55:39.261Z,21.32
2022-08-24T02:58:07.323Z,20.85
2022-08-24T03:00:36.185Z,21.02
2022-08-24T03:03:04.437Z,21.41
2022-08-24T03:05:34.230Z,21.58
2022-08-24T03:08:02.515Z,21.15
2022-08-24T03:10:32.120Z,21.49
2022-08-24T03:13:01.401Z,21.77
2022-08-24T03:15:30.258Z,21.82
2022-08-24T03:17:58.254Z,21.80
2022-08-24T03:20:26.929Z,21.87
2022-08-24T03:22:56.091Z,21.50
2022-08-24T03:25:26.511Z,21.38
2022-08-24T03:27:54.975Z,21.24
2022-08-24T03:30:25.001Z,21.59
2022-08-24T03:32:52.858Z,21.15
2022-08-24T03:35:22.010Z,21.24
2022-08-24T03:37:50.815Z,21.05
2022-08-24T03:40:24.787Z,21.18
2022-08-24T03:42:53.928Z,21.12
2022-08-24T03:45:23.481Z,21.13
2022-08-24T03:47:51.678Z,21.02
2022-08-24T03:50:21.353Z,20.88
2022-08-24T03:52:49.760Z,20.75
2022-08-24T03:55:19.771Z,20.64
2022-08-24T03:57:47.598Z,21.08
2022-08-24T04:00:16.997Z,21.70
2022-08-24T04:02:45.331Z,20.96
2022-08-24T04:05:14.197Z,20.76
2022-08-24T04:07:42.341Z,21.34
2022-08-24T04:10:14.432Z,21.50
2022-08-24T04:12:43.607Z,21.30
2022-08-24T04:15:13.103Z,21.30
2022-08-24T04:17:41.233Z,21.05
2022-08-24T04:20:10.921Z,21.35
2022-08-24T04:22:38.851Z,21.71
2022-08-24T04:25:09.008Z,21.52
2022-08-24T04:27:38.318Z,21.70
2022-08-24T04:30:09.912Z,21.69
2022-08-24T04:32:42.609Z,21.45
2022-08-24T04:35:11.180Z,21.53
2022-08-24T04:37:38.989Z,21.64
2022-08-24T04:40:09.521Z,21.55
2022-08-24T04:42:39.081Z,21.59
2022-08-24T04:45:10.507Z,21.60
2022-08-24T04:47:38.366Z,21.56
2022-08-24T04:50:07.821Z,21.35
2022-08-24T04:52:37.019Z,21.27
2022-08-24T04:55:06.383Z,21.55
2022-08-24T04:57:36.414Z,22.01
2022-08-24T05:00:10.005Z,21.60
2022-08-24T05:02:44.237Z,21.52
2022-08-24T05:05:13.122Z,20.59
2022-08-24T05:07:41.466Z,20.41
2022-08-24T05:10:11.374Z,19.90
2022-08-24T05:12:44.168Z,20.17
2022-08-24T05:15:13.898Z,20.16
2022-08-24T05:17:42.935Z,20.39
2022-08-24T05:20:18.624Z,20.28
2022-08-24T05:22:46.685Z,20.67
2022-08-24T05:25:14.762Z,20.74
2022-08-24T05:27:42.579Z,20.74
2022-08-24T05:30:13.868Z,20.42
2022-08-24T05:32:41.872Z,19.91
2022-08-24T05:35:10.597Z,20.46
2022-08-24T05:37:40.539Z,19.88
2022-08-24T05:40:12.488Z,20.18
2022-08-24T05:42:41.047Z,20.33
2022-08-24T05:45:10.591Z,19.89
2022-08-24T05:47:40.016Z,20.75
2022-08-24T05:50:09.217Z,20.88
2022-08-24T05:52:37.083Z,21.24
2022-08-24T05:55:06.550Z,20.99
2022-08-24T05:57:37.067Z,21.38
2022-08-24T06:00:09.644Z,21.69
2022-08-24T06:02:38.960Z,21.67
2022-08-24T06:05:08.322Z,21.12
2022-08-24T06:07:36.158Z,20.79
2022-08-24T06:10:32.901Z,21.56
2022-08-24T06:12:52.585Z,21.54
2022-08-24T06:15:22.019Z,22.21
2022-08-24T06:17:51.297Z,21.77
2022-08-24T06:20:19.269Z,22.27
2022-08-24T06:22:47.054Z,22.51
2022-08-24T06:25:32.488Z,22.68
2022-08-24T06:28:00.348Z,22.67
2022-08-24T06:30:30.791Z,22.01
2022-08-24T06:33:02.436Z,21.70
2022-08-24T06:35:30.592Z,22.22
2022-08-24T06:37:58.788Z,21.67
2022-08-24T06:40:28.705Z,21.35
2022-08-24T06:42:56.644Z,21.54
2022-08-24T06:45:24.728Z,21.00
2022-08-24T06:47:52.545Z,21.16
2022-08-24T06:50:22.115Z,21.47
2022-08-24T06:52:52.614Z,21.61
2022-08-24T06:55:20.576Z,21.84
2022-08-24T06:57:52.228Z,21.34
2022-08-24T07:00:21.966Z,21.68
2022-08-24T07:02:49.915Z,21.31
2022-08-24T07:05:18.585Z,21.41
2022-08-24T07:07:47.961Z,21.33
2022-08-24T07:10:15.871Z,21.29
2022-08-24T07:12:43.724Z,20.56
2022-08-24T07:15:16.155Z,21.19
2022-08-24T07:17:44.884Z,20.77
2022-08-24T07:20:14.130Z,20.80
2022-08-24T07:22:42.070Z,20.67
2022-08-24T07:25:13.865Z,20.84
2022-08-24T07:27:41.736Z,21.19
2022-08-24T07:30:28.139Z,21.30
2022-08-24T07:32:57.895Z,21.29
2022-08-24T07:35:26.946Z,20.65
2022-08-24T07:37:56.355Z,21.40
2022-08-24T07:40:27.365Z,21.26
2022-08-24T07:42:58.821Z,21.11
2022-08-24T07:45:28.352Z,22.04
2022-08-24T07:47:56.409Z,21.66
2022-08-24T07:50:24.413Z,21.92
2022-08-24T07:52:52.678Z,21.31
2022-08-24T07:55:20.699Z,21.70
2022-08-24T07:57:49.809Z,21.48
2022-08-24T08:00:20.668Z,21.75
2022-08-24T08:02:50.399Z,22.48
2022-08-24T08:05:22.621Z,21.39
2022-08-24T08:07:52.129Z,22.17
2022-08-24T08:10:21.797Z,22.39
2022-08-24T08:12:50.961Z,22.09
2022-08-24T08:15:19.052Z,21.80
2022-08-24T08:17:47.513Z,21.70
2022-08-24T08:20:24.141Z,21.93
2022-08-24T08:23:09.994Z,22.11
2022-08-24T08:25:38.710Z,22.34
2022-08-24T08:28:24.920Z,22.18
2022-08-24T08:30:54.381Z,22.50
2022-08-24T08:33:22.296Z,22.92
2022-08-24T08:35:52.325Z,23.02
2022-08-24T08:38:20.585Z,22.49
2022-08-24T08:41:08.077Z,22.95
2022-08-24T08:43:46.392Z,22.16
2022-08-24T08:46:40.654Z,21.76
2022-08-24T08:49:38.117Z,22.12
2022-08-24T08:52:51.532Z,21.87
2022-08-24T08:55:31.368Z,22.25
2022-08-24T08:58:18.184Z,22.06
2022-08-24T09:01:04.782Z,22.90
2022-08-24T09:04:15.758Z,23.33
2022-08-24T09:07:17.294Z,23.48
2022-08-24T09:10:04.404Z,23.05
2022-08-24T09:12:59.949Z,22.97
2022-08-24T09:16:10.793Z,23.50
2022-08-24T09:19:00.748Z,23.48
2022-08-24T09:21:54.200Z,22.90
2022-08-24T09:24:43.921Z,23.16
2022-08-24T09:27:26.651Z,23.06
2022-08-24T09:30:10.320Z,23.79
2022-08-24T09:33:06.010Z,23.58
2022-08-24T09:35:54.308Z,23.87
2022-08-24T09:38:35.470Z,23.73
2022-08-24T09:41:45.664Z,23.99
2022-08-24T09:44:55.711Z,23.61
2022-08-24T09:48:32.154Z,24.18
2022-08-24T09:51:57.465Z,24.05
2022-08-24T09:55:09.053Z,24.60
2022-08-24T09:58:00.940Z,23.86
2022-08-24T10:00:39.341Z,23.65
2022-08-24T10:03:39.937Z,24.18
2022-08-24T10:06:24.823Z,24.96
2022-08-24T10:09:15.395Z,24.29
2022-08-24T10:12:00.328Z,23.32
2022-08-24T10:14:47.511Z,23.78
2022-08-24T10:17:30.141Z,23.94
2022-08-24T10:20:20.324Z,24.02
2022-08-24T10:23:18.397Z,23.23
2022-08-24T10:25:57.635Z,23.84
2022-08-24T10:28:45.381Z,23.65
2022-08-24T10:31:19.831Z,24.69
2022-08-24T10:34:05.610Z,24.89
2022-08-24T10:37:30.777Z,24.83
2022-08-24T10:40:28.119Z,24.97
2022-08-24T10:43:34.992Z,24.34
2022-08-24T10:46:38.759Z,25.41
2022-08-24T10:50:04.477Z,25.17
2022-08-24T10:53:34.946Z,25.47
2022-08-24T10:56:12.810Z,25.66
2022-08-24T10:58:52.764Z,25.55
2022-08-24T11:01:30.261Z,25.24
2022-08-24T11:04:04.728Z,25.41
2022-08-24T11:06:37.431Z,24.64
2022-08-24T11:09:13.055Z,24.40
2022-08-24T11:11:48.092Z,24.41
2022-08-24T11:14:29.104Z,25.30
2022-08-24T11:17:17.457Z,25.52
2022-08-24T11:19:46.136Z,25.62
2022-08-24T11:22:40.668Z,25.33
2022-08-24T11:25:17.571Z,25.14
2022-08-24T11:27:53.305Z,24.63
2022-08-24T11:30:28.251Z,25.22
2022-08-24T11:32:59.483Z,25.46
2022-08-24T11:35:37.108Z,25.22
2022-08-24T11:38:18.724Z,25.04
2022-08-24T11:40:56.348Z,25.19
2022-08-24T11:43:39.828Z,24.78
2022-08-24T11:46:24.452Z,25.34
2022-08-24T11:49:07.872Z,25.13
2022-08-24T11:51:46.638Z,25.69
2022-08-24T11:54:29.831Z,26.31
2022-08-24T11:57:14.822Z,26.85
2022-08-24T11:59:56.145Z,26.46
2022-08-24T12:02:34.867Z,26.45
2022-08-24T12:05:09.239Z,25.78
2022-08-24T12:07:55.218Z,26.52
2022-08-24T12:10:39.017Z,26.08
2022-08-24T12:13:21.054Z,25.44
2022-08-24T12:16:00.389Z,26.15
2022-08-24T12:18:38.941Z,26.32
2022-08-24T12:21:12.544Z,26.69
2022-08-24T12:23:46.719Z,27.13
2022-08-24T12:26:23.240Z,26.98
2022-08-24T12:28:57.050Z,26.41
2022-08-24T12:31:47.000Z,25.79
2022-08-24T12:34:25.456Z,25.61
2022-08-24T12:37:04.770Z,26.10
2022-08-24T12:39:51.036Z,26.02
2022-08-24T12:42:25.714Z,26.14
2022-08-24T12:45:00.091Z,26.14
2022-08-24T12:47:36.842Z,26.89
2022-08-24T12:50:15.009Z,27.15
2022-08-24T12:53:36.875Z,26.99
2022-08-24T12:56:45.050Z,27.11
2022-08-24T12:59:24.516Z,26.59
2022-08-24T13:02:02.870Z,26.45
2022-08-24T13:04:43.473Z,26.15
2022-08-24T13:07:29.844Z,26.22
2022-08-24T13:10:14.689Z,26.39
2022-08-24T13:13:20.584Z,25.63
2022-08-24T13:15:57.978Z,25.81
2022-08-24T13:18:51.963Z,26.69
2022-08-24T13:21:46.707Z,26.38
2022-08-24T13:24:44.791Z,26.10
2022-08-24T13:28:03.962Z,27.60
2022-08-24T13:31:05.714Z,27.54
2022-08-24T13:33:41.880Z,27.78
2022-08-24T13:36:44.829Z,28.07
2022-08-24T13:39:39.121Z,28.18
2022-08-24T13:42:24.522Z,28.37
2022-08-24T13:45:17.898Z,27.98
2022-08-24T13:47:56.807Z,28.24
2022-08-24T13:50:50.729Z,27.83
2022-08-24T13:53:58.770Z,27.65
2022-08-24T13:56:49.085Z,26.94
2022-08-24T13:59:44.119Z,27.07
2022-08-24T14:02:36.640Z,27.03
2022-08-24T14:05:25.899Z,27.17
2022-08-24T14:08:13.999Z,27.02
2022-08-24T14:10:58.893Z,26.87
2022-08-24T14:13:47.789Z,26.64
2022-08-24T14:16:59.870Z,26.57
2022-08-24T14:19:45.526Z,26.96
2022-08-24T14:22:30.921Z,27.65
2022-08-24T14:25:17.099Z,27.68
2022-08-24T14:27:48.165Z,27.61
2022-08-24T14:30:50.261Z,27.73
2022-08-24T14:33:34.043Z,27.97
2022-08-24T14:36:19.490Z,28.06
2022-08-24T14:39:06.400Z,28.23
2022-08-24T14:41:54.972Z,28.18
2022-08-24T14:44:45.773Z,27.59
2022-08-24T14:47:33.113Z,27.83
2022-08-24T14:50:13.170Z,28.05
2022-08-24T14:53:01.071Z,28.26
2022-08-24T14:55:42.337Z,27.69
2022-08-24T14:58:31.104Z,27.77
2022-08-24T15:01:34.136Z,28.05
2022-08-24T15:04:37.438Z,27.86
2022-08-24T15:07:26.833Z,27.36
2022-08-24T15:09:56.611Z,27.67
2022-08-24T15:12:42.497Z,28.22
2022-08-24T15:15:23.813Z,28.01
2022-08-24T15:18:02.609Z,27.90
2022-08-24T15:21:03.897Z,27.74
2022-08-24T15:23:50.891Z,27.54
2022-08-24T15:26:33.773Z,27.71
2022-08-24T15:29:14.756Z,27.70
2022-08-24T15:31:44.148Z,27.88
2022-08-24T15:34:12.203Z,27.89
2022-08-24T15:36:41.502Z,27.57
2022-08-24T15:39:09.389Z,27.68
2022-08-24T15:41:42.978Z,27.71
2022-08-24T15:44:21.207Z,27.34
2022-08-24T15:46:58.643Z,27.56
2022-08-24T15:49:32.125Z,27.56
2022-08-24T15:52:06.179Z,27.91
2022-08-24T15:54:43.938Z,27.91
2022-08-24T15:57:30.807Z,27.55
2022-08-24T16:00:12.381Z,27.53
2022-08-24T16:02:39.709Z,27.69
2022-08-24T16:05:21.722Z,27.33
2022-08-24T16:08:10.521Z,27.20
2022-08-24T16:10:44.703Z,27.48
2022-08-24T16:13:26.381Z,27.21
2022-08-24T16:16:03.024Z,27.60
2022-08-24T16:18:49.144Z,27.57
2022-08-24T16:21:28.657Z,27.20
2022-08-24T16:24:09.896Z,26.87
2022-08-24T16:26:59.292Z,26.77
2022-08-24T16:29:53.391Z,27.08
2022-08-24T16:32:30.582Z,26.89
2022-08-24T16:35:20.570Z,26.99
2022-08-24T16:37:48.545Z,26.95
2022-08-24T16:40:17.953Z,26.72
2022-08-24T16:42:46.191Z,26.38
2022-08-24T16:45:19.124Z,26.66
2022-08-24T16:47:48.096Z,27.20
2022-08-24T16:50:18.933Z,27.16
2022-08-24T16:52:46.925Z,27.04
2022-08-24T16:55:15.124Z,27.26
2022-08-24T16:57:46.904Z,27.69
2022-08-24T17:00:21.971Z,27.57
2022-08-24T17:02:50.886Z,27.45
2022-08-24T17:05:19.657Z,26.94
2022-08-24T17:07:48.581Z,27.13
2022-08-24T17:10:19.779Z,27.32
2022-08-24T17:12:51.854Z,27.19
2022-08-24T17:15:20.802Z,27.57
2022-08-24T17:17:57.317Z,27.51
2022-08-24T17:20:25.589Z,26.98
2022-08-24T17:22:53.401Z,27.03
2022-08-24T17:25:21.392Z,26.78
2022-08-24T17:27:52.697Z,26.91
2022-08-24T17:30:23.015Z,26.70
2022-08-24T17:32:52.434Z,26.78
2022-08-24T17:35:20.886Z,26.98
2022-08-24T17:37:51.060Z,26.43
2022-08-24T17:40:24.479Z,26.27
2022-08-24T17:42:54.178Z,26.26
2022-08-24T17:45:23.324Z,26.43
2022-08-24T17:47:52.754Z,26.81
2022-08-24T17:50:24.165Z,26.47
2022-08-24T17:52:56.264Z,26.56
2022-08-24T17:55:29.491Z,26.27
2022-08-24T17:57:59.135Z,26.42
2022-08-24T18:00:27.148Z,26.40
2022-08-24T18:02:55.039Z,26.66
2022-08-24T18:05:22.889Z,26.10
2022-08-24T18:07:55.124Z,26.09
2022-08-24T18:10:26.295Z,26.07
2022-08-24T18:12:54.794Z,25.91
2022-08-24T18:15:35.807Z,25.64
2022-08-24T18:18:09.296Z,25.95
2022-08-24T18:20:42.397Z,25.68
2022-08-24T18:23:11.934Z,25.34
2022-08-24T18:25:48.290Z,25.26
2022-08-24T18:28:20.785Z,25.47
2022-08-24T18:30:50.157Z,25.59
2022-08-24T18:33:18.254Z,25.67
2022-08-24T18:35:46.856Z,25.80
2022-08-24T18:38:14.931Z,25.83
2022-08-24T18:40:52.121Z,25.19
2022-08-24T18:43:24.599Z,25.17
2022-08-24T18:45:54.936Z,25.14
2022-08-24T18:48:23.700Z,25.23
2022-08-24T18:50:53.150Z,25.67
2022-08-24T18:53:25.592Z,25.32
2022-08-24T18:55:53.520Z,25.66
2022-08-24T18:58:21.800Z,25.45
2022-08-24T19:00:51.082Z,25.04
2022-08-24T19:03:24.609Z,24.89
2022-08-24T19:05:52.553Z,25.50
2022-08-24T19:08:20.872Z,25.23
2022-08-24T19:10:48.864Z,25.45
2022-08-24T19:13:18.351Z,25.47
2022-08-24T19:15:47.553Z,25.56
2022-08-24T19:18:17.319Z,25.18
2022-08-24T19:20:50.593Z,25.53
2022-08-24T19:23:24.116Z,24.91
2022-08-24T19:25:54.481Z,24.94
2022-08-24T19:28:23.985Z,25.70
2022-08-24T19:30:56.684Z,24.64
2022-08-24T19:33:28.293Z,24.60
2022-08-24T19:35:59.032Z,24.95
2022-08-24T19:38:27.246Z,24.86
2022-08-24T19:40:58.052Z,24.70
2022-08-24T19:43:27.950Z,24.84
2022-08-24T19:46:02.538Z,24.40
2022-08-24T19:48:31.641Z,24.67
2022-08-24T19:51:04.064Z,24.40
2022-08-24T19:53:35.298Z,24.99
2022-08-24T19:56:04.010Z,24.86
2022-08-24T19:58:44.439Z,24.50
2022-08-24T20:01:18.837Z,24.91
2022-08-24T20:03:46.998Z,24.32
2022-08-24T20:06:18.949Z,24.93
2022-08-24T20:08:48.374Z,24.92
2022-08-24T20:11:17.459Z,24.54
2022-08-24T20:13:46.166Z,25.16
2022-08-24T20:16:18.186Z,24.42
2022-08-24T20:18:47.548Z,24.43
2022-08-24T20:21:17.652Z,24.83
2022-08-24T20:23:45.961Z,24.25
2022-08-24T20:26:15.253Z,24.15
2022-08-24T20:28:47.852Z,24.57
2022-08-24T20:31:17.195Z,24.56
2022-08-24T20:33:45.489Z,24.69
2022-08-24T20:36:26.621Z,24.98
2022-08-24T20:38:58.302Z,24.89
2022-08-24T20:41:26.934Z,24.09
2022-08-24T20:43:55.086Z,23.61
2022-08-24T20:46:23.434Z,24.12
2022-08-24T20:48:55.652Z,24.40
2022-08-24T20:51:25.791Z,24.02
2022-08-24T20:53:53.849Z,24.28
2022-08-24T20:56:30.740Z,23.69
2022-08-24T20:59:01.688Z,24.12
2022-08-24T21:01:30.033Z,23.27
2022-08-24T21:04:02.846Z,23.83
2022-08-24T21:06:35.202Z,23.27
2022-08-24T21:09:04.890Z,22.97
2022-08-24T21:11:33.525Z,22.95
2022-08-24T21:14:05.473Z,23.62
2022-08-24T21:16:37.500Z,23.11
2022-08-24T21:19:05.469Z,23.17
2022-08-24T21:21:35.355Z,22.97
2022-08-24T21:24:04.697Z,23.65
2022-08-24T21:26:35.013Z,24.03
2022-08-24T21:29:06.669Z,23.60
2022-08-24T21:31:35.137Z,23.61
2022-08-24T21:34:22.667Z,23.55
2022-08-24T21:36:54.243Z,23.29
2022-08-24T21:39:22.566Z,23.18
2022-08-24T21:41:50.455Z,24.07
2022-08-24T21:44:18.450Z,23.14
2022-08-24T21:46:46.406Z,22.71
2022-08-24T21:49:15.232Z,23.02
2022-08-24T21:51:43.119Z,23.30
2022-08-24T21:54:13.161Z,23.74
2022-08-24T21:56:41.490Z,23.46
2022-08-24T21:59:09.603Z,22.94
2022-08-24T22:01:38.773Z,23.18
2022-08-24T22:04:08.027Z,23.53
2022-08-24T22:06:36.471Z,22.84
2022-08-24T22:09:05.577Z,22.67
2022-08-24T22:11:35.226Z,22.62
2022-08-24T22:14:04.632Z,22.75
2022-08-24T22:16:32.912Z,22.83
2022-08-24T22:19:05.728Z,23.28
2022-08-24T22:21:36.176Z,23.83
2022-08-24T22:24:05.179Z,23.83
2022-08-24T22:26:35.685Z,23.27
2022-08-24T22:29:06.253Z,22.92
2022-08-24T22:31:40.633Z,22.98
2022-08-24T22:34:12.537Z,22.40
2022-08-24T22:36:47.333Z,22.56
2022-08-24T22:39:15.421Z,22.77
2022-08-24T22:41:45.154Z,23.09
2022-08-24T22:44:21.932Z,22.86
2022-08-24T22:46:53.284Z,22.48
2022-08-24T22:49:24.491Z,23.11
2022-08-24T22:51:53.028Z,23.10
2022-08-24T22:54:24.541Z,23.14
2022-08-24T22:56:57.177Z,22.79
2022-08-24T22:59:28.460Z,22.70
2022-08-24T23:01:58.222Z,22.59
2022-08-24T23:04:29.702Z,22.72
2022-08-24T23:06:57.705Z,23.20
2022-08-24T23:09:25.840Z,22.95
2022-08-24T23:11:55.654Z,22.85
2022-08-24T23:14:25.391Z,23.11
2022-08-24T23:16:53.860Z,23.05
2022-08-24T23:19:42.726Z,22.51
2022-08-24T23:22:14.729Z,22.36
2022-08-24T23:24:45.049Z,22.12
2022-08-24T23:27:16.665Z,22.29
2022-08-24T23:29:45.971Z,22.04
2022-08-24T23:32:17.888Z,22.33
2022-08-24T23:34:46.748Z,22.67
2022-08-24T23:37:15.545Z,23.24
2022-08-24T23:39:44.021Z,22.86
2022-08-24T23:42:12.392Z,22.31
2022-08-24T23:44:42.213Z,22.18
2022-08-24T23:47:10.221Z,22.08
2022-08-24T23:49:39.773Z,22.41
2022-08-24T23:52:07.633Z,22.46
2022-08-24T23:54:35.831Z,22.36
2022-08-24T23:57:08.597Z,22.00
2022-08-24T23:59:36.981Z,22.76
